Time;durP1;ratioP1;P1;durP2;ratioP2;P2;SDS_P1;SDS_P2;PMS_P1;PMS_P2;Temp;Humidity;BMP_temperature;BMP_pressure;BME280_temperature;BME280_humidity;BME280_pressure;Samples;Min_cycle;Max_cycle;Signal;HPM_P1;HPM_P2
2023/01/21 00:01:07;;;;;;;46.87;25.50;;;-3.40;99.90;;;-4.37;93.37;98325.88;5086625;28;20554;-79
2023/01/21 00:03:35;;;;;;;39.27;24.17;;;-3.30;99.90;;;-4.25;93.87;98332.03;5085672;28;20483;-82
2023/01/21 00:06:02;;;;;;;46.67;25.93;;;-3.30;99.90;;;-3.86;93.47;98366.97;5089859;28;20513;-78
2023/01/21 00:08:30;;;;;;;45.73;24.70;;;-3.20;99.90;;;-3.92;93.33;98342.84;5086279;28;20456;-78
2023/01/21 00:10:57;;;;;;;46.13;25.50;;;-3.00;99.90;;;-3.74;93.62;98367.84;5087616;28;20461;-77
2023/01/21 00:13:25;;;;;;;74.90;26.53;;;-3.00;99.90;;;-3.89;94.97;98384.84;5086514;28;20499;-79
2023/01/21 00:15:55;;;;;;;80.87;28.30;;;-3.00;99.90;;;-3.77;95.21;98364.63;5078236;28;21016;-78
2023/01/21 00:18:23;;;;;;;58.83;28.33;;;-2.90;99.90;;;-3.77;95.67;98368.09;5085212;28;20865;-81
2023/01/21 00:20:50;;;;;;;59.60;26.57;;;-2.90;99.90;;;-3.44;95.53;98378.84;5089570;28;20451;-80
2023/01/21 00:23:17;;;;;;;51.83;26.37;;;-2.80;99.90;;;-3.27;94.69;98380.19;5085809;28;20584;-81
2023/01/21 00:25:44;;;;;;;53.30;28.80;;;-2.70;99.90;;;-3.36;94.48;98375.63;5083312;28;20495;-79
2023/01/21 00:28:12;;;;;;;51.87;26.40;;;-2.60;99.90;;;-3.28;95.02;98357.34;5088432;28;20453;-79
2023/01/21 00:30:40;;;;;;;62.10;28.67;;;-2.60;99.90;;;-3.35;94.80;98356.16;5088455;28;20459;-81
2023/01/21 00:33:09;;;;;;;53.63;27.93;;;-2.50;99.90;;;-3.35;94.66;98372.03;5073683;28;21191;-80
2023/01/21 00:35:36;;;;;;;79.77;28.13;;;-2.50;99.90;;;-3.37;94.78;98379.22;5077198;28;20538;-75
2023/01/21 00:38:03;;;;;;;57.00;27.13;;;-2.60;99.90;;;-3.49;95.60;98376.56;5090364;28;20454;-79
2023/01/21 00:40:30;;;;;;;61.53;27.63;;;-2.60;99.90;;;-3.52;95.97;98370.66;5086076;28;20450;-77
2023/01/21 00:42:57;;;;;;;59.77;29.70;;;-2.70;99.90;;;-3.29;95.46;98384.75;5089467;28;20477;-78
2023/01/21 00:45:25;;;;;;;56.50;28.90;;;-2.60;99.90;;;-3.35;95.20;98370.19;5082377;28;20551;-78
2023/01/21 00:47:53;;;;;;;61.80;29.97;;;-2.40;99.90;;;-3.52;95.52;98366.22;5071382;28;20454;-80
2023/01/21 00:50:21;;;;;;;60.03;28.70;;;-2.50;99.90;;;-3.11;95.38;98392.22;5089594;28;20457;-77
2023/01/21 00:52:48;;;;;;;56.30;29.37;;;-2.40;99.90;;;-3.27;95.19;98372.25;5068970;28;20478;-80
2023/01/21 00:55:16;;;;;;;53.30;26.93;;;-2.40;99.90;;;-3.42;95.12;98396.25;5080076;28;20448;-78
2023/01/21 00:57:43;;;;;;;58.60;27.67;;;-2.50;99.90;;;-3.46;95.83;98402.75;5089273;28;20450;-78
2023/01/21 01:00:13;;;;;;;59.70;30.00;;;-2.50;99.90;;;-3.58;96.46;98385.19;5103476;28;20434;-80
2023/01/21 01:02:41;;;;;;;63.73;28.57;;;-2.60;99.90;;;-4.15;96.02;98296.09;5070930;28;20468;-80
2023/01/21 01:05:09;;;;;;;58.90;28.83;;;-2.60;99.90;;;-3.49;95.97;98399.47;5087430;28;20461;-77
2023/01/21 01:07:40;;;;;;;62.33;28.30;;;-2.60;99.90;;;-3.85;96.17;98367.84;5090337;28;20430;-77
2023/01/21 01:10:08;;;;;;;48.03;27.07;;;-2.70;99.90;;;-3.48;96.24;98407.31;5088462;28;20735;-81
2023/01/21 01:12:36;;;;;;;57.10;28.73;;;-2.60;99.90;;;-3.49;96.19;98413.56;5077371;28;20438;-76
2023/01/21 01:15:03;;;;;;;59.50;29.03;;;-2.70;99.90;;;-3.18;95.75;98400.63;5084383;28;20509;-76
2023/01/21 01:17:30;;;;;;;59.17;28.20;;;-2.50;99.90;;;-3.30;94.46;98401.56;5081870;28;20444;-79
2023/01/21 01:19:58;;;;;;;56.87;28.53;;;-2.50;99.90;;;-3.54;95.57;98418.34;5085483;28;20564;-75
2023/01/21 01:22:25;;;;;;;54.10;25.37;;;-2.60;99.90;;;-3.64;95.70;98420.00;5081908;28;20915;-80
2023/01/21 01:24:54;;;;;;;56.90;27.63;;;-2.70;99.90;;;-3.61;96.29;98425.91;5099663;28;20763;-78
2023/01/21 01:27:21;;;;;;;56.70;28.87;;;-2.70;99.90;;;-3.54;95.79;98428.91;5086113;28;20458;-78
2023/01/21 01:29:49;;;;;;;52.77;28.37;;;-2.70;99.90;;;-3.55;95.42;98424.59;5086604;28;20457;-78
2023/01/21 01:32:16;;;;;;;55.57;27.50;;;-2.60;99.90;;;-3.36;94.80;98421.38;5088835;28;20462;-78
2023/01/21 01:34:45;;;;;;;57.27;27.70;;;-2.50;99.90;;;-3.23;94.60;98423.94;5080676;28;20479;-77
2023/01/21 01:37:12;;;;;;;51.20;27.83;;;-2.50;99.90;;;-3.19;94.15;98435.97;5087788;28;20461;-78
2023/01/21 01:39:39;;;;;;;55.60;26.30;;;-2.50;99.90;;;-3.43;94.40;98439.50;5083711;28;20876;-79
2023/01/21 01:42:14;;;;;;;56.87;27.83;;;-2.60;99.90;;;-3.49;94.85;98439.97;5080163;28;20495;-76
2023/01/21 01:45:00;;;;;;;44.93;23.40;;;-2.60;99.90;;;-3.49;94.39;98442.63;5079614;28;20478;-76
2023/01/21 01:47:37;;;;;;;41.47;22.67;;;-2.70;99.90;;;-3.52;94.13;98442.84;5084920;28;20491;-78
2023/01/21 01:50:07;;;;;;;48.93;25.07;;;-2.60;99.90;;;-3.27;92.77;98446.25;5103709;28;20462;-79
2023/01/21 01:52:36;;;;;;;40.67;23.50;;;-2.50;99.90;;;-3.44;92.38;98452.84;5104714;28;20462;-76
2023/01/21 01:55:05;;;;;;;43.07;22.83;;;-2.60;99.90;;;-3.49;92.86;98432.03;5083052;28;21011;-77
2023/01/21 01:57:37;;;;;;;44.73;24.80;;;-2.60;99.90;;;-3.30;92.34;98449.13;5086276;28;20478;-79
2023/01/21 02:00:10;;;;;;;41.00;24.00;;;-2.50;99.90;;;-3.34;92.31;98452.97;5087443;28;20450;-76
2023/01/21 02:02:39;;;;;;;45.50;24.00;;;-2.50;99.90;;;-3.16;92.17;98456.03;5086975;28;20513;-78
2023/01/21 02:05:09;;;;;;;39.67;22.07;;;-2.50;99.90;;;-2.99;90.63;98454.72;5090793;28;20451;-77
2023/01/21 02:07:40;;;;;;;41.63;23.07;;;-2.30;99.90;;;-3.14;90.68;98447.00;5079394;28;20507;-78
2023/01/21 02:10:13;;;;;;;41.60;22.87;;;-2.40;99.90;;;-3.56;90.43;98378.00;5102399;28;20441;-76
2023/01/21 02:12:43;;;;;;;36.50;20.30;;;-2.40;99.90;;;-3.37;90.15;98434.72;5094613;28;20840;-75
2023/01/21 02:15:12;;;;;;;41.07;21.80;;;-2.50;99.90;;;-3.47;90.56;98427.47;5090058;28;20463;-75
2023/01/21 02:17:54;;;;;;;37.00;22.20;;;-2.60;99.90;;;-3.33;89.59;98444.09;5089225;28;20531;-77
2023/01/21 02:21:07;;;;;;;37.13;20.57;;;-2.60;99.90;;;-3.54;90.46;98438.63;5084608;28;20454;-80
2023/01/21 02:24:10;;;;;;;41.23;22.63;;;-2.80;99.90;;;-3.73;90.91;98446.13;5086562;28;20501;-76
2023/01/21 02:27:24;;;;;;;39.63;19.10;;;-2.90;99.90;;;-3.84;91.12;98432.91;5089208;28;20486;-77
2023/01/21 02:30:40;;;;;;;35.40;20.13;;;-3.00;99.90;;;-3.96;90.55;98394.19;5089514;28;20443;-78
2023/01/21 02:33:40;;;;;;;33.50;18.93;;;-3.00;99.90;;;-3.88;90.28;98416.44;5080336;28;20506;-77
2023/01/21 02:36:28;;;;;;;35.37;19.80;;;-3.00;99.90;;;-3.63;89.60;98429.59;5083235;28;20531;-75
2023/01/21 02:39:06;;;;;;;34.33;18.97;;;-3.00;99.90;;;-3.70;90.33;98443.28;5083415;28;20457;-78
2023/01/21 02:41:49;;;;;;;40.20;22.67;;;-3.00;99.90;;;-3.64;89.99;98436.69;5080690;28;20439;-80
2023/01/21 02:44:25;;;;;;;32.83;19.90;;;-3.00;99.90;;;-3.65;89.67;98434.97;5079434;28;20493;-82
2023/01/21 02:47:00;;;;;;;34.87;20.40;;;-3.00;99.90;;;-3.87;90.67;98430.44;5096065;27;20456;-81
2023/01/21 02:49:36;;;;;;;37.67;20.13;;;-3.00;99.90;;;-3.64;90.11;98425.28;5080416;28;20499;-79
2023/01/21 02:52:03;;;;;;;36.90;20.17;;;-2.90;99.90;;;-3.73;90.89;98453.22;5077534;28;20459;-78
2023/01/21 02:54:54;;;;;;;33.23;20.63;;;-3.00;99.90;;;-3.81;90.94;98440.59;5087020;28;20480;-77
2023/01/21 02:57:41;;;;;;;37.33;20.20;;;-3.00;99.90;;;-3.82;91.12;98438.03;5079174;28;20461;-77
2023/01/21 03:00:16;;;;;;;38.03;21.10;;;-3.00;99.90;;;-3.72;91.11;98439.88;5077716;28;20459;-80
2023/01/21 03:03:18;;;;;;;36.67;19.63;;;-3.00;99.90;;;-3.77;90.51;98444.66;5086538;28;20461;-78
2023/01/21 03:06:29;;;;;;;32.60;19.80;;;-3.00;99.90;;;-3.91;90.87;98442.22;5081601;28;20454;-82
2023/01/21 03:09:06;;;;;;;37.07;20.77;;;-3.00;99.90;;;-3.97;91.32;98446.13;5090148;28;20452;-80
2023/01/21 03:11:33;;;;;;;37.30;20.20;;;-3.10;99.90;;;-3.77;90.24;98444.66;5089489;28;21349;-81
2023/01/21 03:17:03;;;;;;;34.50;18.70;;;-3.10;99.90;;;-4.04;90.61;98398.22;5099456;28;20817;-72
2023/01/21 03:19:38;;;;;;;35.90;20.43;;;-3.10;99.90;;;-3.66;90.26;98450.97;5076798;28;21026;-75
2023/01/21 03:22:12;;;;;;;33.33;20.43;;;-3.00;99.90;;;-3.61;89.66;98438.25;5071499;28;20469;-77
2023/01/21 03:24:43;;;;;;;30.90;19.77;;;-2.90;99.90;;;-3.84;89.25;98414.41;5097641;28;20581;-76
2023/01/21 03:27:16;;;;;;;40.43;21.60;;;-2.90;99.90;;;-3.84;90.09;98433.72;5082937;28;20531;-74
2023/01/21 03:29:46;;;;;;;34.33;19.43;;;-3.00;99.90;;;-3.75;90.01;98423.44;5075224;28;20446;-75
2023/01/21 03:32:17;;;;;;;34.20;21.17;;;-2.90;99.90;;;-3.61;89.90;98443.53;5082551;28;20455;-75
2023/01/21 03:34:51;;;;;;;32.47;19.60;;;-2.90;99.90;;;-3.63;90.01;98426.94;5078209;28;20479;-77
2023/01/21 03:37:29;;;;;;;35.53;20.00;;;-2.90;99.90;;;-3.84;90.42;98424.97;5089871;28;20456;-79
2023/01/21 03:40:08;;;;;;;37.70;20.67;;;-2.90;99.90;;;-3.51;90.26;98446.31;5080682;28;20459;-74
2023/01/21 03:42:36;;;;;;;32.87;19.37;;;-2.90;99.90;;;-3.65;90.86;98445.53;5075552;28;20483;-76
2023/01/21 03:45:04;;;;;;;34.73;20.77;;;-2.90;99.90;;;-3.75;90.22;98408.41;5075270;28;20569;-77
2023/01/21 03:47:35;;;;;;;37.90;19.40;;;-2.80;99.90;;;-3.61;90.83;98440.88;5095690;28;20450;-74
2023/01/21 03:50:08;;;;;;;40.00;21.20;;;-2.80;99.90;;;-3.57;90.14;98421.19;5077308;28;20706;-73
2023/01/21 03:52:40;;;;;;;34.00;21.27;;;-2.70;99.90;;;-3.45;90.47;98446.69;5081606;28;20512;-76
2023/01/21 03:55:13;;;;;;;38.37;22.30;;;-2.70;99.90;;;-3.43;90.25;98434.22;5077666;28;20464;-76
2023/01/21 03:57:40;;;;;;;34.10;21.33;;;-2.60;99.90;;;-3.15;89.75;98445.31;5083435;28;20458;-74
2023/01/21 04:00:10;;;;;;;38.00;22.70;;;-2.50;99.90;;;-3.34;90.35;98452.97;5078651;28;21275;-75
2023/01/21 04:02:37;;;;;;;36.47;21.27;;;-2.60;99.90;;;-3.20;90.18;98444.84;5093886;28;20461;-74
2023/01/21 04:05:05;;;;;;;35.27;21.30;;;-2.50;99.90;;;-3.22;90.08;98451.19;5092943;28;20461;-74
2023/01/21 04:07:32;;;;;;;29.27;20.00;;;-2.50;99.90;;;-3.32;89.97;98404.34;5079338;28;20446;-74
2023/01/21 04:10:01;;;;;;;37.30;22.37;;;-2.40;99.90;;;-3.12;89.52;98441.63;5079083;28;20449;-72
2023/01/21 04:12:28;;;;;;;33.60;19.57;;;-2.40;99.80;;;-3.08;89.30;98443.06;5082080;28;20934;-72
2023/01/21 04:14:56;;;;;;;34.10;20.60;;;-2.30;98.70;;;-3.48;89.71;98362.38;5082313;28;20461;-73
2023/01/21 04:17:24;;;;;;;36.43;21.90;;;-2.40;99.20;;;-3.01;89.37;98443.44;5083099;28;20879;-78
2023/01/21 04:19:51;;;;;;;36.03;20.50;;;-2.30;99.20;;;-3.80;89.97;98339.28;5078880;28;20663;-74
2023/01/21 04:22:19;;;;;;;39.00;22.97;;;-2.30;99.40;;;-3.13;89.91;98440.75;5080589;28;21001;-72
2023/01/21 04:24:48;;;;;;;34.70;21.60;;;-2.40;99.70;;;-3.51;90.52;98386.41;5087040;28;20484;-78
2023/01/21 04:27:16;;;;;;;36.40;20.60;;;-2.40;99.90;;;-3.18;90.46;98435.00;5082743;28;21013;-74
2023/01/21 04:29:44;;;;;;;33.07;19.40;;;-2.40;99.90;;;-3.63;90.93;98377.63;5082951;28;20476;-75
2023/01/21 04:32:11;;;;;;;35.70;20.30;;;-2.40;99.90;;;-3.31;91.59;98439.53;5079411;28;20759;-73
2023/01/21 04:34:38;;;;;;;36.87;20.10;;;-2.40;99.90;;;-3.48;91.67;98415.22;5083942;28;20468;-78
2023/01/21 04:37:06;;;;;;;41.10;21.47;;;-2.50;99.90;;;-3.50;91.46;98430.34;5086651;28;20509;-73
2023/01/21 04:39:33;;;;;;;34.80;21.00;;;-2.50;99.90;;;-3.27;91.63;98444.47;5085236;28;20448;-76
2023/01/21 04:42:01;;;;;;;36.77;22.47;;;-2.50;99.90;;;-3.43;91.79;98418.34;5088128;28;20519;-75
2023/01/21 04:44:29;;;;;;;44.20;21.77;;;-2.50;99.90;;;-3.27;91.94;98435.69;5077566;28;20453;-74
2023/01/21 04:46:56;;;;;;;37.40;20.53;;;-2.50;99.90;;;-3.61;92.53;98386.28;5085823;28;20446;-75
2023/01/21 04:49:24;;;;;;;39.10;23.23;;;-2.50;99.90;;;-3.44;92.49;98418.50;5084020;28;20453;-75
2023/01/21 04:51:51;;;;;;;41.17;21.60;;;-2.50;99.90;;;-4.09;92.82;98320.31;5083900;28;20560;-76
2023/01/21 04:54:19;;;;;;;40.23;21.60;;;-2.50;99.90;;;-3.22;92.30;98435.34;5085048;28;20474;-74
2023/01/21 04:56:46;;;;;;;38.53;22.50;;;-2.40;99.90;;;-3.26;92.91;98440.03;5087731;28;20451;-75
2023/01/21 04:59:13;;;;;;;39.00;21.23;;;-2.40;99.90;;;-3.16;92.35;98430.44;5084596;28;20527;-73
2023/01/21 05:01:42;;;;;;;37.63;22.00;;;-2.30;99.90;;;-3.40;91.36;98377.66;5081748;28;20530;-75
2023/01/21 05:04:09;;;;;;;44.53;25.03;;;-2.20;99.90;;;-3.07;91.67;98425.41;5084500;28;21594;-79
2023/01/21 05:06:36;;;;;;;38.00;22.93;;;-2.30;99.90;;;-2.97;91.54;98450.16;5083118;28;20461;-75
2023/01/21 05:09:04;;;;;;;42.77;22.30;;;-2.30;99.90;;;-3.30;91.19;98394.50;5082094;28;20451;-74
2023/01/21 05:11:31;;;;;;;37.40;22.63;;;-2.30;99.90;;;-3.16;91.23;98422.50;5083164;28;20449;-73
2023/01/21 05:13:58;;;;;;;39.80;23.60;;;-2.20;99.90;;;-3.16;91.66;98448.94;5083270;28;20504;-76
2023/01/21 05:16:26;;;;;;;43.30;22.10;;;-2.30;99.90;;;-3.19;91.98;98433.31;5097311;28;20487;-74
2023/01/21 05:18:55;;;;;;;41.47;23.70;;;-2.30;99.90;;;-3.00;91.77;98456.53;5088742;28;20443;-74
2023/01/21 05:21:22;;;;;;;42.93;24.20;;;-2.30;99.90;;;-3.64;90.65;98341.59;5083644;28;20468;-71
2023/01/21 05:23:50;;;;;;;45.20;23.10;;;-2.20;99.90;;;-3.35;91.50;98414.31;5083892;28;20459;-72
2023/01/21 05:26:18;;;;;;;46.60;24.27;;;-2.30;99.90;;;-3.01;91.49;98440.78;5090000;28;20468;-74
2023/01/21 05:28:45;;;;;;;39.30;22.87;;;-2.20;99.90;;;-2.71;90.68;98461.38;5089913;28;20481;-73
2023/01/21 05:31:12;;;;;;;38.00;22.53;;;-2.10;99.90;;;-2.90;90.65;98446.09;5101836;28;21270;-74
2023/01/21 05:33:42;;;;;;;37.87;20.10;;;-2.10;99.90;;;-3.17;91.07;98444.59;5084639;28;20458;-75
2023/01/21 05:36:11;;;;;;;45.00;22.43;;;-2.30;99.90;;;-3.50;91.16;98403.09;5081657;28;20491;-74
2023/01/21 05:38:39;;;;;;;42.67;21.87;;;-2.30;99.90;;;-3.26;91.30;98463.84;5088577;28;20463;-72
2023/01/21 05:41:06;;;;;;;41.90;24.33;;;-2.40;99.90;;;-3.06;91.40;98448.25;5089114;28;20531;-73
2023/01/21 05:43:33;;;;;;;44.03;22.43;;;-2.30;99.90;;;-3.11;90.60;98458.31;5086930;28;20475;-73
2023/01/21 05:46:00;;;;;;;39.50;22.70;;;-2.30;99.90;;;-3.00;90.63;98467.13;5083957;28;20449;-72
2023/01/21 05:48:29;;;;;;;43.17;22.33;;;-2.30;99.90;;;-3.38;91.19;98440.97;5084675;28;20459;-75
2023/01/21 05:50:56;;;;;;;42.60;22.77;;;-2.30;99.90;;;-3.26;91.00;98429.47;5087264;28;20546;-73
2023/01/21 05:53:25;;;;;;;44.07;23.50;;;-2.30;99.90;;;-3.13;90.93;98466.38;5086295;28;20473;-73
2023/01/21 05:55:53;;;;;;;41.07;21.47;;;-2.30;99.90;;;-3.28;91.18;98432.22;5077197;28;20472;-77
2023/01/21 05:58:20;;;;;;;44.57;22.80;;;-2.30;99.90;;;-3.27;91.32;98425.97;5087909;28;20534;-77
2023/01/21 06:00:48;;;;;;;39.80;21.80;;;-2.30;99.90;;;-2.99;90.66;98457.38;5087908;28;20478;-75
2023/01/21 06:03:17;;;;;;;39.07;21.17;;;-2.20;99.90;;;-2.92;90.48;98463.88;5087877;28;20962;-74
2023/01/21 06:05:45;;;;;;;40.00;23.27;;;-2.10;99.90;;;-2.65;90.12;98470.63;5086937;28;20478;-75
2023/01/21 06:08:13;;;;;;;44.33;22.27;;;-2.10;99.90;;;-4.49;89.59;98208.06;5086847;28;20450;-75
2023/01/21 06:10:44;;;;;;;41.77;23.07;;;-2.00;99.90;;;-3.04;89.67;98439.22;5091713;28;20441;-76
2023/01/21 06:13:12;;;;;;;46.43;24.40;;;-2.00;99.90;;;-2.83;89.64;98453.53;5089461;28;20465;-75
2023/01/21 06:15:40;;;;;;;38.10;23.00;;;-2.00;99.80;;;-3.00;90.53;98482.13;5080150;28;20473;-77
2023/01/21 06:18:08;;;;;;;39.13;21.80;;;-2.10;99.30;;;-3.10;90.51;98442.34;5088582;28;20488;-75
2023/01/21 06:20:36;;;;;;;38.63;21.30;;;-2.10;99.90;;;-3.20;90.55;98471.28;5088648;28;20484;-74
2023/01/21 06:23:04;;;;;;;40.70;24.07;;;-2.20;99.90;;;-3.01;91.28;98480.44;5084216;28;20462;-79
2023/01/21 06:25:35;;;;;;;46.57;22.27;;;-2.20;99.90;;;-3.10;90.77;98454.72;5088353;28;20604;-76
2023/01/21 06:28:04;;;;;;;44.90;23.60;;;-2.20;99.90;;;-3.11;91.48;98458.31;5106203;28;20576;-74
2023/01/21 06:30:31;;;;;;;44.90;23.40;;;-2.20;99.90;;;-3.01;91.13;98462.78;5087170;28;20440;-77
2023/01/21 06:32:58;;;;;;;41.97;22.33;;;-2.10;99.90;;;-2.93;91.04;98472.78;5097630;28;20454;-79
2023/01/21 06:35:25;;;;;;;41.57;22.90;;;-2.20;99.90;;;-2.85;90.83;98454.50;5099887;28;20472;-81
2023/01/21 06:37:52;;;;;;;44.50;21.70;;;-2.10;99.90;;;-3.27;90.85;98425.97;5090708;28;20442;-76
2023/01/21 06:40:20;;;;;;;41.73;22.63;;;-2.10;99.90;;;-3.22;90.68;98404.47;5089054;28;20755;-78
2023/01/21 06:42:48;;;;;;;38.77;21.43;;;-2.00;99.90;;;-2.69;89.87;98473.63;5092750;28;20457;-78
2023/01/21 06:45:17;;;;;;;38.47;22.90;;;-2.00;99.90;;;-2.81;89.97;98486.84;5089894;28;20449;-79
2023/01/21 06:47:45;;;;;;;37.00;20.20;;;-2.00;99.90;;;-2.89;90.89;98483.94;5101843;28;20944;-71
2023/01/21 06:50:15;;;;;;;36.53;21.87;;;-2.10;99.90;;;-2.90;91.26;98487.53;5081772;28;20453;-71
2023/01/21 06:52:44;;;;;;;39.20;20.87;;;-2.10;99.90;;;-2.79;90.62;98499.97;5078693;28;20462;-71
2023/01/21 06:55:13;;;;;;;47.93;23.03;;;-2.00;99.90;;;-2.75;90.49;98485.53;5078258;28;20470;-73
2023/01/21 06:57:40;;;;;;;46.77;24.10;;;-2.00;99.90;;;-2.68;90.11;98491.19;5080371;28;20446;-70
2023/01/21 07:00:14;;;;;;;40.90;22.77;;;-1.90;99.90;;;-2.78;90.32;98502.47;5081241;28;21014;-71
2023/01/21 07:02:42;;;;;;;41.00;24.10;;;-2.00;99.90;;;-2.83;90.80;98504.66;5076082;28;20458;-70
2023/01/21 07:05:10;;;;;;;42.60;23.33;;;-2.00;99.90;;;-2.62;90.44;98504.78;5080265;28;20456;-72
2023/01/21 07:07:37;;;;;;;46.70;24.53;;;-1.90;99.90;;;-2.76;90.23;98494.44;5074802;28;20849;-70
2023/01/21 07:10:07;;;;;;;45.20;23.57;;;-2.00;99.90;;;-2.56;90.16;98506.94;5071833;28;20454;-75
2023/01/21 07:12:35;;;;;;;43.50;22.67;;;-1.90;99.90;;;-2.34;89.50;98505.28;5079653;28;20973;-75
2023/01/21 07:15:02;;;;;;;37.23;22.70;;;-1.70;99.90;;;-2.37;88.53;98500.19;5085320;28;20470;-77
2023/01/21 07:17:29;;;;;;;42.17;21.47;;;-1.70;98.90;;;-2.13;87.93;98517.75;5091693;27;20996;-75
2023/01/21 07:19:57;;;;;;;35.30;21.03;;;-1.60;97.30;;;-2.24;87.91;98512.47;5084061;28;20446;-74
2023/01/21 07:22:25;;;;;;;30.73;19.50;;;-1.60;96.20;;;-2.20;87.73;98516.53;5083459;28;20477;-75
2023/01/21 07:24:52;;;;;;;37.13;21.03;;;-1.60;95.40;;;-2.16;87.73;98512.72;5076067;28;20505;-74
2023/01/21 07:27:19;;;;;;;36.77;21.27;;;-1.50;95.20;;;-2.06;86.98;98518.94;5080424;28;20463;-76
2023/01/21 07:29:46;;;;;;;37.37;19.60;;;-1.40;95.20;;;-2.34;86.87;98468.22;5096602;28;20450;-74
2023/01/21 07:32:16;;;;;;;35.90;20.77;;;-1.40;94.10;;;-2.53;86.37;98446.78;5083989;28;21018;-87
2023/01/21 07:34:44;;;;;;;36.70;20.47;;;-1.40;93.40;;;-2.14;86.99;98508.13;5075837;28;20484;-76
2023/01/21 07:37:12;;;;;;;34.77;20.87;;;-1.40;93.90;;;-2.47;86.69;98449.81;5094016;28;20942;-75
2023/01/21 07:39:39;;;;;;;34.40;20.93;;;-1.30;93.60;;;-2.06;86.36;98513.63;5074561;28;20787;-74
2023/01/21 07:42:08;;;;;;;37.90;21.63;;;-1.30;92.90;;;-2.08;86.03;98514.75;5078083;28;20450;-74
2023/01/21 07:44:35;;;;;;;30.80;19.70;;;-1.40;92.70;;;-2.07;86.27;98517.25;5081263;28;20625;-73
2023/01/21 07:47:02;;;;;;;31.80;19.43;;;-1.40;92.80;;;-2.18;86.72;98496.13;5072692;28;20452;-73
2023/01/21 07:49:29;;;;;;;33.53;18.60;;;-1.40;93.30;;;-2.17;86.32;98508.38;5075146;28;20516;-74
2023/01/21 07:51:57;;;;;;;34.93;20.30;;;-1.40;92.90;;;-2.12;86.43;98508.84;5068731;28;20460;-73
2023/01/21 07:54:26;;;;;;;33.80;18.97;;;-1.40;93.00;;;-2.09;86.34;98508.59;5076018;28;20451;-73
2023/01/21 07:56:53;;;;;;;27.93;18.97;;;-1.40;92.70;;;-2.14;86.86;98516.06;5081703;28;20507;-72
2023/01/21 07:59:20;;;;;;;34.37;20.63;;;-1.40;93.00;;;-2.14;86.89;98513.44;5073929;28;20555;-74
2023/01/21 08:01:48;;;;;;;37.07;20.87;;;-1.40;92.90;;;-2.26;86.87;98522.34;5079116;28;20502;-72
2023/01/21 08:04:15;;;;;;;34.90;19.50;;;-1.40;92.70;;;-2.11;86.42;98515.81;5074988;28;20461;-73
2023/01/21 08:06:42;;;;;;;34.77;18.57;;;-1.40;92.70;;;-2.07;86.38;98513.78;5081782;28;20456;-74
2023/01/21 08:09:10;;;;;;;37.70;21.10;;;-1.30;92.60;;;-2.02;86.23;98507.16;5076884;28;20469;-74
2023/01/21 08:11:38;;;;;;;35.90;18.07;;;-1.30;92.60;;;-2.00;85.87;98518.47;5080068;28;20958;-73
2023/01/21 08:14:06;;;;;;;29.40;18.00;;;-1.30;92.20;;;-2.04;85.90;98517.03;5078522;28;20801;-74
2023/01/21 08:16:33;;;;;;;35.73;19.37;;;-1.30;92.00;;;-2.08;85.67;98510.28;5083196;28;20478;-74
2023/01/21 08:19:00;;;;;;;33.40;18.80;;;-1.30;91.70;;;-2.11;85.36;98521.13;5077186;28;20823;-73
2023/01/21 08:21:27;;;;;;;30.73;18.53;;;-1.30;91.10;;;-2.10;85.61;98522.81;5085626;28;21022;-74
2023/01/21 08:23:55;;;;;;;30.83;19.03;;;-1.30;91.10;;;-2.09;85.63;98510.41;5089106;28;20452;-74
2023/01/21 08:26:22;;;;;;;38.43;19.87;;;-1.30;91.60;;;-1.89;85.26;98520.25;5078472;28;20450;-71
2023/01/21 08:28:54;;;;;;;28.30;17.60;;;-1.20;92.30;;;-1.91;85.16;98522.19;5083585;28;20511;-73
2023/01/21 08:31:23;;;;;;;29.00;18.87;;;-1.20;91.50;;;-1.89;85.13;98524.72;5077343;28;20899;-73
2023/01/21 08:33:50;;;;;;;31.00;18.10;;;-1.10;91.00;;;-1.91;84.80;98527.47;5081775;28;20450;-73
2023/01/21 08:36:17;;;;;;;30.97;18.80;;;-1.10;90.70;;;-1.90;84.66;98536.25;5094038;28;20489;-72
2023/01/21 08:38:44;;;;;;;36.63;19.53;;;-1.10;90.60;;;-2.31;84.92;98467.09;5079157;28;20478;-73
2023/01/21 08:41:11;;;;;;;39.70;18.23;;;-1.10;90.50;;;-1.96;84.72;98526.16;5080346;28;20556;-73
2023/01/21 08:43:39;;;;;;;29.17;18.00;;;-1.10;90.30;;;-2.32;84.83;98461.00;5078713;28;20447;-74
2023/01/21 08:46:08;;;;;;;29.60;18.40;;;-1.10;90.60;;;-1.85;84.67;98536.75;5082334;28;20501;-74
2023/01/21 08:48:37;;;;;;;29.03;19.80;;;-1.10;90.40;;;-1.59;84.75;98549.69;5079717;28;20457;-72
2023/01/21 08:51:04;;;;;;;31.27;17.97;;;-0.90;90.90;;;-1.58;83.61;98549.56;5086691;28;20522;-73
2023/01/21 08:53:32;;;;;;;32.93;19.77;;;-0.90;90.00;;;-1.46;83.36;98545.06;5084727;28;20481;-74
2023/01/21 08:56:00;;;;;;;34.50;20.53;;;-0.80;89.80;;;-1.56;83.22;98536.19;5081713;28;20983;-73
2023/01/21 08:58:27;;;;;;;56.50;32.93;;;-0.80;89.10;;;-1.36;83.42;98552.25;5086802;28;20491;-74
2023/01/21 09:00:55;;;;;;;57.63;39.00;;;-0.80;89.60;;;-1.40;82.79;98548.19;5075009;28;20462;-72
2023/01/21 09:03:24;;;;;;;37.13;25.70;;;-0.70;89.10;;;-1.38;82.38;98554.19;5078359;28;22408;-72
2023/01/21 09:05:53;;;;;;;31.03;18.63;;;-0.70;88.30;;;-1.46;82.01;98550.34;5098954;28;20458;-74
2023/01/21 09:08:20;;;;;;;30.67;18.60;;;-0.70;86.10;;;-1.39;82.45;98568.44;5083094;28;20454;-80
2023/01/21 09:11:03;;;;;;;27.53;15.47;;;-0.70;86.90;;;-1.49;81.85;98558.56;5102394;27;20458;-73
2023/01/21 09:13:33;;;;;;;29.83;17.47;;;-0.70;86.30;;;-1.87;81.84;98491.81;5082791;28;20446;-73
2023/01/21 09:16:00;;;;;;;27.43;16.90;;;-0.70;86.50;;;-1.43;82.02;98565.19;5085804;28;20461;-72
2023/01/21 09:18:28;;;;;;;29.33;17.27;;;-0.70;86.20;;;-1.30;82.08;98570.31;5080939;28;20479;-73
2023/01/21 09:21:01;;;;;;;27.63;16.50;;;-0.60;86.40;;;-1.23;82.06;98568.84;5082217;28;20450;-73
2023/01/21 09:23:31;;;;;;;27.37;18.40;;;-0.50;86.60;;;-0.81;80.50;98575.19;5076033;28;20463;-71
2023/01/21 09:26:04;;;;;;;28.97;17.90;;;-0.30;86.00;;;-0.80;80.41;98582.16;5103232;27;20495;-71
2023/01/21 09:28:33;;;;;;;27.87;17.60;;;-0.20;83.90;;;-0.82;79.71;98584.09;5083990;28;20450;-73
2023/01/21 09:31:03;;;;;;;22.93;16.40;;;-0.10;83.00;;;-0.55;79.93;98574.75;5084244;28;20452;-72
2023/01/21 09:33:34;;;;;;;27.10;16.00;;;0.10;85.50;;;-0.67;80.25;98580.16;5081516;28;20514;-74
2023/01/21 09:36:05;;;;;;;24.47;15.50;;;0.00;83.80;;;-0.55;78.82;98580.94;5083490;28;20474;-73
2023/01/21 09:38:32;;;;;;;23.73;13.87;;;0.10;81.90;;;-0.49;79.06;98584.88;5095141;28;20459;-73
2023/01/21 09:41:11;;;;;;;27.50;16.43;;;0.20;82.10;;;-0.26;77.51;98584.69;5089984;28;20970;-71
2023/01/21 09:43:45;;;;;;;19.60;13.53;;;0.30;81.30;;;-0.33;77.05;98581.72;5087420;28;20523;-86
2023/01/21 09:46:24;;;;;;;24.17;14.83;;;0.40;80.00;;;-0.31;77.35;98569.16;5100017;28;20508;-72
2023/01/21 09:48:54;;;;;;;21.93;14.30;;;0.40;80.10;;;-0.53;78.34;98586.94;5083469;28;20512;-72
2023/01/21 09:51:28;;;;;;;23.97;14.20;;;0.30;80.20;;;-0.55;78.79;98596.00;5079926;28;20941;-72
2023/01/21 09:53:58;;;;;;;20.80;12.93;;;0.30;80.60;;;-0.34;77.53;98591.53;5105294;28;21095;-73
2023/01/21 09:56:32;;;;;;;16.10;11.67;;;0.30;80.00;;;-0.48;76.06;98594.53;5081106;28;20516;-71
2023/01/21 09:59:06;;;;;;;19.40;10.13;;;0.30;78.10;;;-0.57;75.39;98591.66;5080510;28;20446;-72
2023/01/21 10:01:36;;;;;;;12.27;7.70;;;0.30;77.30;;;-0.69;73.76;98590.03;5087731;28;20926;-71
2023/01/21 10:04:32;;;;;;;13.03;8.37;;;0.20;75.70;;;-0.67;72.12;98601.41;5085448;28;20496;-75
2023/01/21 10:07:06;;;;;;;13.53;8.23;;;0.20;74.50;;;-0.50;72.38;98594.63;5085079;28;20451;-72
2023/01/21 10:09:55;;;;;;;9.97;7.37;;;0.30;74.80;;;-0.31;71.68;98595.72;5066532;28;20532;-73
2023/01/21 10:12:35;;;;;;;12.20;6.77;;;0.40;74.40;;;-0.57;70.73;98570.44;5073603;28;20463;-71
2023/01/21 10:15:30;;;;;;;12.40;8.20;;;0.40;73.50;;;-0.36;70.76;98598.78;5074532;28;20444;-72
2023/01/21 10:18:03;;;;;;;14.93;7.67;;;0.40;73.60;;;-0.65;71.65;98588.84;5093854;28;20469;-72
2023/01/21 10:20:39;;;;;;;13.10;8.13;;;0.30;73.40;;;-0.44;72.06;98596.78;5080320;28;20941;-73
2023/01/21 10:23:15;;;;;;;11.87;7.67;;;0.30;74.00;;;-0.34;70.86;98596.84;5096604;28;20450;-73
2023/01/21 10:25:43;;;;;;;12.13;7.70;;;0.50;73.80;;;-0.38;71.37;98599.88;5100477;28;20463;-74